Time;durP1;ratioP1;P1;durP2;ratioP2;P2;SDS_P1;SDS_P2;PMS_P1;PMS_P2;Temp;Humidity;BMP_temperature;BMP_pressure;BME280_temperature;BME280_humidity;BME280_pressure;Samples;Min_cycle;Max_cycle;Signal;HPM_P1;HPM_P2
2023/05/02 00:02:10;;;;;;;24.23;15.95;;;;;;;11.36;87.72;101949.94;4917544;29;20119;-80
2023/05/02 00:04:36;;;;;;;30.30;17.15;;;;;;;11.33;88.03;101949.97;4917087;29;20365;-80
2023/05/02 00:07:01;;;;;;;25.40;17.23;;;;;;;11.31;88.58;101957.06;4917436;29;20047;-80
2023/05/02 00:09:28;;;;;;;26.40;16.23;;;;;;;11.24;88.92;101958.00;4898862;29;20035;-80
2023/05/02 00:11:54;;;;;;;28.05;16.10;;;;;;;11.22;88.39;101962.41;4908001;29;20507;-80
2023/05/02 00:14:19;;;;;;;30.88;16.23;;;;;;;11.18;88.34;101968.66;4915783;29;20040;-80
2023/05/02 00:16:45;;;;;;;28.42;16.55;;;;;;;11.13;87.90;101970.44;4931512;29;20107;-81
2023/05/02 00:19:10;;;;;;;26.98;16.95;;;;;;;11.12;88.65;101972.19;4899214;29;20076;-80
2023/05/02 00:21:36;;;;;;;27.23;15.77;;;;;;;11.08;88.43;101965.16;4903613;29;20035;-80
2023/05/02 00:24:01;;;;;;;26.80;16.38;;;;;;;11.01;88.60;101965.22;4916842;29;20492;-81
2023/05/02 00:26:27;;;;;;;31.15;16.58;;;;;;;11.00;88.72;101974.91;4916866;29;20048;-80
2023/05/02 00:28:53;;;;;;;27.45;16.08;;;;;;;10.92;88.21;101971.44;4916944;29;20050;-81
2023/05/02 00:31:18;;;;;;;24.70;14.98;;;;;;;10.88;88.28;101977.63;4900115;29;20040;-80
2023/05/02 00:33:44;;;;;;;23.42;14.55;;;;;;;10.75;88.61;101963.56;4917609;29;20036;-80
2023/05/02 00:36:17;;;;;;;20.20;12.55;;;;;;;10.69;88.77;101971.56;4919947;29;20403;-80
2023/05/02 00:38:43;;;;;;;19.75;13.13;;;;;;;10.66;88.70;101977.75;4909477;29;20036;-80
2023/05/02 00:41:09;;;;;;;24.40;14.00;;;;;;;10.65;88.91;101978.63;4926611;29;20046;-80
2023/05/02 00:43:35;;;;;;;20.10;12.45;;;;;;;10.61;89.28;101978.63;4916545;29;20090;-80
2023/05/02 00:46:01;;;;;;;21.95;12.25;;;;;;;10.59;89.50;101978.66;4915356;29;20504;-80
2023/05/02 00:48:26;;;;;;;22.70;12.35;;;;;;;10.57;89.41;101984.84;4898054;29;20080;-80
2023/05/02 00:50:52;;;;;;;23.75;13.48;;;;;;;10.54;89.55;101981.31;4896130;29;20385;-80
2023/05/02 00:53:17;;;;;;;22.92;13.55;;;;;;;10.54;89.47;101983.09;4910730;29;20430;-80
2023/05/02 00:55:43;;;;;;;20.88;13.40;;;;;;;10.50;89.37;101974.25;4903041;29;20509;-80
2023/05/02 00:58:15;;;;;;;22.88;13.43;;;;;;;10.52;89.42;101982.22;4906398;29;20048;-81
2023/05/02 01:01:07;;;;;;;20.65;12.98;;;;;;;10.51;88.46;101980.47;4904881;29;20167;-80
2023/05/02 01:04:14;;;;;;;20.17;11.68;;;;;;;10.49;88.27;101987.53;4904746;29;20041;-80
2023/05/02 01:06:40;;;;;;;17.55;11.52;;;;;;;10.46;88.83;101983.13;4900614;29;20048;-80
2023/05/02 01:09:21;;;;;;;20.23;11.25;;;;;;;10.45;88.62;101988.41;4902654;29;20039;-80
2023/05/02 01:12:02;;;;;;;16.98;10.77;;;;;;;10.43;88.92;101984.88;4914823;29;20027;-80
2023/05/02 01:14:32;;;;;;;19.13;11.30;;;;;;;10.40;89.70;101984.91;4916202;29;20076;-80
2023/05/02 01:17:03;;;;;;;17.20;11.65;;;;;;;10.32;90.40;101975.19;4889959;29;20038;-81
2023/05/02 01:19:34;;;;;;;18.67;11.32;;;;;;;10.32;90.37;101976.97;4901829;29;20096;-80
2023/05/02 01:22:04;;;;;;;14.88;11.35;;;;;;;10.33;89.04;101969.00;4909207;29;20052;-80
2023/05/02 01:24:37;;;;;;;16.75;11.00;;;;;;;10.37;89.20;101975.19;4907582;29;20088;-80
2023/05/02 01:27:26;;;;;;;17.75;11.23;;;;;;;10.40;89.08;101974.31;4901621;29;20032;-80
2023/05/02 01:29:53;;;;;;;16.30;10.43;;;;;;;10.36;89.38;101977.84;4914082;29;20277;-80
2023/05/02 01:32:22;;;;;;;17.75;9.85;;;;;;;10.31;89.49;101975.19;4896730;29;20047;-80
2023/05/02 01:34:50;;;;;;;18.90;10.60;;;;;;;10.33;89.50;101979.59;4892259;29;20032;-80
2023/05/02 01:37:17;;;;;;;16.05;10.07;;;;;;;10.31;89.90;101983.13;4915040;29;20079;-80
2023/05/02 01:39:43;;;;;;;16.38;10.10;;;;;;;10.28;89.57;101977.84;4911160;29;20212;-80
2023/05/02 01:42:11;;;;;;;15.43;9.45;;;;;;;10.30;90.75;101982.25;4899058;29;20028;-80
2023/05/02 01:44:39;;;;;;;19.00;11.38;;;;;;;10.32;90.31;101995.50;4915656;29;20369;-80
2023/05/02 01:47:08;;;;;;;13.88;9.95;;;;;;;10.30;88.74;101990.19;4901175;29;20032;-80
2023/05/02 01:49:35;;;;;;;15.10;10.70;;;;;;;10.33;90.08;102007.84;4903093;29;20040;-80
2023/05/02 01:52:07;;;;;;;14.43;9.80;;;;;;;10.32;90.09;102001.69;4898918;29;20039;-80
2023/05/02 01:54:35;;;;;;;17.38;11.20;;;;;;;10.35;90.25;102005.22;4920415;29;20044;-80
2023/05/02 01:57:03;;;;;;;25.42;11.63;;;;;;;10.30;91.63;102006.09;4925484;29;20039;-80
2023/05/02 01:59:32;;;;;;;23.67;12.70;;;;;;;10.29;92.00;102009.63;4905975;29;20104;-80
2023/05/02 02:02:01;;;;;;;21.13;12.35;;;;;;;10.29;92.13;102014.06;4916011;29;20024;-80
2023/05/02 02:04:28;;;;;;;24.58;13.35;;;;;;;10.30;90.81;102014.03;4915556;29;20044;-80
2023/05/02 02:07:07;;;;;;;22.00;12.48;;;;;;;10.32;92.13;102008.75;4915701;29;20480;-80
2023/05/02 02:09:33;;;;;;;20.85;12.73;;;;;;;10.32;91.69;102009.63;4914338;29;20036;-80
2023/05/02 02:12:05;;;;;;;19.40;12.57;;;;;;;10.29;92.75;102012.28;4914308;29;20024;-80
2023/05/02 02:14:40;;;;;;;19.65;12.52;;;;;;;10.28;92.81;102021.09;4900631;29;20060;-80
2023/05/02 02:17:21;;;;;;;21.90;13.40;;;;;;;10.26;93.06;102020.22;4915752;29;20164;-80
2023/05/02 02:19:47;;;;;;;21.30;13.57;;;;;;;10.27;92.89;102021.97;4915709;29;20040;-80
2023/05/02 02:22:16;;;;;;;21.70;14.50;;;;;;;10.26;93.10;102032.53;4906382;29;20020;-80
2023/05/02 02:24:43;;;;;;;23.00;14.52;;;;;;;10.24;93.45;102027.25;4913591;29;20040;-80
2023/05/02 02:27:09;;;;;;;21.60;14.35;;;;;;;10.23;93.58;102029.91;4898610;29;20028;-80
2023/05/02 02:29:34;;;;;;;20.88;13.63;;;;;;;10.22;94.07;102031.69;4915020;29;20051;-80
2023/05/02 02:32:00;;;;;;;24.17;14.02;;;;;;;10.21;93.51;102029.94;4909761;29;20044;-80
2023/05/02 02:34:26;;;;;;;22.45;14.55;;;;;;;10.19;93.64;102025.47;4910918;29;20396;-80
2023/05/02 02:37:00;;;;;;;20.98;12.95;;;;;;;10.23;94.18;102040.50;4912478;29;20051;-80
2023/05/02 02:39:35;;;;;;;24.73;13.32;;;;;;;10.27;93.39;102037.84;4913177;29;20051;-80
2023/05/02 02:42:30;;;;;;;25.33;13.88;;;;;;;10.32;92.80;102040.53;4916450;29;20043;-80
2023/05/02 02:45:10;;;;;;;19.33;12.63;;;;;;;10.24;94.27;102040.50;4905907;29;20048;-80
2023/05/02 02:47:47;;;;;;;21.60;13.20;;;;;;;10.23;94.36;102036.06;4900537;29;20511;-80
2023/05/02 02:50:26;;;;;;;19.95;13.93;;;;;;;10.22;94.37;102034.31;4911292;29;20079;-80
2023/05/02 02:52:59;;;;;;;20.73;13.50;;;;;;;10.27;93.87;102043.13;4908584;29;20047;-81
2023/05/02 02:55:35;;;;;;;23.88;13.25;;;;;;;10.28;94.57;102044.03;4918994;29;20487;-80
2023/05/02 02:58:13;;;;;;;19.02;12.48;;;;;;;10.24;94.61;102043.16;4902197;29;20175;-80
2023/05/02 03:00:39;;;;;;;20.23;12.88;;;;;;;10.27;94.97;102048.44;4917316;29;20123;-80
2023/05/02 03:03:06;;;;;;;19.85;12.20;;;;;;;10.27;95.47;102047.56;4891951;29;20032;-80
2023/05/02 03:05:32;;;;;;;18.90;11.98;;;;;;;10.28;94.48;102057.28;4915618;29;20126;-80
2023/05/02 03:07:59;;;;;;;20.08;11.38;;;;;;;10.31;95.16;102055.53;4893656;29;20123;-81
2023/05/02 03:10:25;;;;;;;18.25;11.02;;;;;;;10.33;95.35;102063.44;4912232;29;20048;-81
2023/05/02 03:12:54;;;;;;;19.25;11.52;;;;;;;10.34;95.77;102057.28;4901424;29;20040;-81
2023/05/02 03:15:58;;;;;;;19.63;11.45;;;;;;;10.39;94.23;102070.53;4917220;29;20044;-80
2023/05/02 03:18:27;;;;;;;17.27;10.63;;;;;;;10.38;95.68;102072.28;4877688;29;20041;-80
2023/05/02 03:20:54;;;;;;;18.40;10.63;;;;;;;10.33;95.83;102072.28;4910341;29;20036;-80
2023/05/02 03:23:19;;;;;;;16.55;10.57;;;;;;;10.33;95.98;102084.63;4901465;29;20036;-80
2023/05/02 03:25:45;;;;;;;17.35;10.35;;;;;;;10.30;96.25;102082.00;4918422;29;20040;-80
2023/05/02 03:28:17;;;;;;;13.18;7.43;;;;;;;10.28;96.99;102089.94;4897751;29;20195;-81
2023/05/02 03:30:45;;;;;;;18.70;6.70;;;;;;;10.28;96.89;102087.28;4892005;29;20044;-80
2023/05/02 03:33:11;;;;;;;14.60;6.15;;;;;;;10.25;97.03;102092.56;4906380;29;20032;-80
2023/05/02 03:35:38;;;;;;;16.10;5.70;;;;;;;10.25;96.22;102096.97;4893507;29;20043;-80
2023/05/02 03:38:04;;;;;;;13.45;5.65;;;;;;;10.24;96.66;102101.41;4898508;29;20384;-80
2023/05/02 03:40:29;;;;;;;17.58;5.30;;;;;;;10.25;95.31;102100.50;4901085;29;20056;-80
2023/05/02 03:42:56;;;;;;;17.30;5.35;;;;;;;10.22;95.79;102100.50;4889159;29;20039;-80
2023/05/02 03:45:27;;;;;;;14.10;4.65;;;;;;;10.22;94.88;102105.81;4887124;29;20040;-80
2023/05/02 03:47:54;;;;;;;15.30;4.20;;;;;;;10.17;93.72;102104.03;4901235;29;20539;-80
2023/05/02 03:50:22;;;;;;;14.00;3.42;;;;;;;10.10;93.40;102111.09;4900466;29;20067;-80
2023/05/02 03:52:49;;;;;;;14.00;3.97;;;;;;;10.05;92.25;102107.56;4916588;29;20044;-80
2023/05/02 03:55:20;;;;;;;8.43;2.93;;;;;;;9.99;91.85;102108.44;4900557;29;20403;-80
2023/05/02 03:57:47;;;;;;;9.93;3.28;;;;;;;9.94;91.40;102110.22;4900412;29;20480;-80
2023/05/02 04:00:12;;;;;;;12.10;3.45;;;;;;;9.90;91.29;102124.31;4900374;29;20060;-81
2023/05/02 04:02:42;;;;;;;9.05;2.95;;;;;;;9.87;90.80;102122.53;4885995;29;20396;-80
2023/05/02 04:05:10;;;;;;;10.07;3.17;;;;;;;9.90;89.56;102134.88;4916244;29;20050;-80
2023/05/02 04:07:37;;;;;;;9.40;2.67;;;;;;;9.85;87.64;102131.34;4900810;29;20070;-80
2023/05/02 04:10:06;;;;;;;7.43;2.25;;;;;;;9.80;86.70;102136.63;4900712;29;20475;-80
2023/05/02 04:12:36;;;;;;;6.65;2.10;;;;;;;9.77;86.22;102139.28;4872013;29;20059;-80
2023/05/02 04:15:02;;;;;;;5.30;2.10;;;;;;;9.71;84.80;102139.25;4863183;29;20033;-80
2023/05/02 04:17:29;;;;;;;5.25;1.88;;;;;;;9.66;84.55;102151.59;4887519;29;20035;-81
2023/05/02 04:19:55;;;;;;;8.85;1.70;;;;;;;9.61;84.65;102145.41;4890213;29;20036;-80
2023/05/02 04:22:24;;;;;;;8.73;2.13;;;;;;;9.56;84.22;102142.72;4892520;29;20027;-80
2023/05/02 04:24:54;;;;;;;5.80;1.73;;;;;;;9.55;83.73;102151.56;4899807;29;20036;-80
2023/05/02 04:27:20;;;;;;;5.45;1.90;;;;;;;9.44;83.19;102155.91;4916015;29;20064;-80
2023/05/02 04:29:48;;;;;;;7.43;2.00;;;;;;;9.44;82.69;102163.84;4916859;29;20086;-80
2023/05/02 04:32:14;;;;;;;9.68;1.88;;;;;;;9.38;82.28;102177.94;4894770;29;20130;-80
2023/05/02 04:34:40;;;;;;;4.20;1.50;;;;;;;9.34;82.39;102176.13;4887827;29;20609;-80
2023/05/02 04:37:07;;;;;;;11.55;2.45;;;;;;;9.35;82.14;102180.56;4900106;29;20171;-80
2023/05/02 04:39:33;;;;;;;6.50;1.90;;;;;;;9.30;82.09;102184.94;4898689;29;20095;-80
2023/05/02 04:42:02;;;;;;;6.85;2.00;;;;;;;9.30;82.02;102191.97;4915705;29;20036;-80
2023/05/02 04:44:32;;;;;;;5.40;1.60;;;;;;;9.28;81.49;102192.00;4899894;29;20067;-80
2023/05/02 04:46:58;;;;;;;7.25;2.17;;;;;;;9.26;81.59;102185.81;4883328;29;20441;-80
2023/05/02 04:49:23;;;;;;;7.32;1.80;;;;;;;9.26;81.89;102197.25;4890341;29;20063;-80
2023/05/02 04:51:50;;;;;;;2.78;1.38;;;;;;;9.28;81.68;102201.69;4896773;29;20056;-80
2023/05/02 04:54:16;;;;;;;7.22;2.38;;;;;;;9.29;82.28;102212.25;4908244;29;20040;-80
2023/05/02 04:56:43;;;;;;;6.95;2.33;;;;;;;9.32;81.76;102216.66;4909794;29;20055;-81
2023/05/02 04:59:09;;;;;;;6.75;2.05;;;;;;;9.32;81.23;102209.63;4931363;29;20032;-80
2023/05/02 05:01:35;;;;;;;9.00;2.30;;;;;;;9.33;81.55;102218.44;4904354;29;20048;-80
2023/05/02 05:04:02;;;;;;;4.93;1.70;;;;;;;9.33;81.07;102221.09;4909823;29;20036;-80
2023/05/02 05:06:27;;;;;;;8.02;2.15;;;;;;;9.32;82.07;102216.66;4906104;29;20059;-80
2023/05/02 05:08:54;;;;;;;8.88;2.08;;;;;;;9.31;81.36;102213.13;4930419;28;20317;-80
2023/05/02 05:11:20;;;;;;;7.13;2.35;;;;;;;9.36;81.17;102229.03;4899529;29;20088;-80
2023/05/02 05:13:45;;;;;;;8.48;1.95;;;;;;;9.37;80.67;102229.06;4921271;28;20060;-80
2023/05/02 05:16:12;;;;;;;6.18;1.95;;;;;;;9.37;80.56;102239.63;4927759;29;20091;-79
2023/05/02 05:18:41;;;;;;;7.50;2.17;;;;;;;9.36;79.52;102232.56;4915456;29;20427;-80
2023/05/02 05:21:09;;;;;;;5.45;2.05;;;;;;;9.39;78.78;102236.97;4910117;29;20048;-80
2023/05/02 05:23:36;;;;;;;8.27;1.73;;;;;;;9.41;77.91;102244.03;4918956;29;20028;-80
2023/05/02 05:26:10;;;;;;;5.35;1.75;;;;;;;9.40;77.09;102246.69;4915318;29;20036;-80
2023/05/02 05:28:36;;;;;;;5.18;2.50;;;;;;;9.40;76.98;102252.84;4902498;29;20047;-80
2023/05/02 05:31:10;;;;;;;5.28;1.80;;;;;;;9.36;77.25;102244.91;4904915;29;20029;-81
2023/05/02 05:33:38;;;;;;;5.78;1.80;;;;;;;9.33;76.98;102252.81;4916412;29;20036;-81
2023/05/02 05:36:05;;;;;;;6.13;2.17;;;;;;;9.31;76.70;102259.84;4923742;29;20091;-81
2023/05/02 05:38:31;;;;;;;5.25;2.58;;;;;;;9.30;76.19;102266.00;4901336;29;20373;-80
2023/05/02 05:40:57;;;;;;;6.22;2.13;;;;;;;9.30;76.91;102272.19;4930880;29;20034;-81
2023/05/02 05:43:22;;;;;;;7.55;2.20;;;;;;;9.31;76.00;102266.00;4916310;29;20510;-80
2023/05/02 05:45:50;;;;;;;5.05;1.60;;;;;;;9.39;76.28;102274.00;4908337;29;20033;-80
2023/05/02 05:48:16;;;;;;;5.80;1.90;;;;;;;9.48;75.27;102274.06;4925525;29;20032;-81
2023/05/02 05:50:45;;;;;;;8.85;2.50;;;;;;;9.50;75.24;102271.44;4892437;29;20514;-80
2023/05/02 05:53:11;;;;;;;9.52;2.80;;;;;;;9.53;75.33;102279.38;4908097;29;20035;-81
2023/05/02 05:55:39;;;;;;;5.43;2.00;;;;;;;9.59;75.20;102282.03;4930242;28;20103;-80
2023/05/02 05:58:05;;;;;;;7.70;2.00;;;;;;;9.60;75.14;102281.19;4914590;29;20060;-81
2023/05/02 06:00:35;;;;;;;7.15;2.20;;;;;;;9.64;74.69;102286.50;4901150;29;20063;-80
2023/05/02 06:03:00;;;;;;;9.80;2.50;;;;;;;9.66;74.71;102281.19;4914765;29;20036;-80
2023/05/02 06:05:30;;;;;;;9.10;2.30;;;;;;;9.69;74.78;102294.44;4912309;29;20032;-80
2023/05/02 06:07:56;;;;;;;9.98;2.40;;;;;;;9.69;75.35;102299.72;4903408;29;20035;-79
2023/05/02 06:10:22;;;;;;;10.15;2.40;;;;;;;9.76;75.31;102300.63;4914152;29;20028;-78
2023/05/02 06:12:48;;;;;;;9.02;2.90;;;;;;;9.81;75.41;102305.06;4901137;29;20040;-79
2023/05/02 06:15:15;;;;;;;11.77;2.60;;;;;;;9.82;75.58;102312.16;4887367;29;20029;-78
2023/05/02 06:17:41;;;;;;;10.30;2.28;;;;;;;9.79;75.70;102320.06;4904376;29;20068;-78
2023/05/02 06:20:08;;;;;;;13.10;3.05;;;;;;;9.77;76.05;102318.31;4910754;29;20036;-78
2023/05/02 06:22:34;;;;;;;10.52;2.50;;;;;;;9.79;76.66;102313.88;4919500;29;20055;-78
2023/05/02 06:24:59;;;;;;;14.80;2.65;;;;;;;9.84;77.05;102328.91;4902144;29;20028;-78
2023/05/02 06:27:25;;;;;;;8.88;2.50;;;;;;;9.90;76.44;102331.56;4923909;28;20394;-78
2023/05/02 06:29:51;;;;;;;12.65;3.20;;;;;;;9.96;76.44;102333.34;4930494;29;20057;-78
2023/05/02 06:32:17;;;;;;;11.75;2.95;;;;;;;9.98;75.89;102338.66;4913673;29;20072;-78
2023/05/02 06:34:43;;;;;;;13.38;3.20;;;;;;;9.99;75.28;102348.38;4907197;29;20025;-78
2023/05/02 06:37:08;;;;;;;15.55;2.80;;;;;;;10.02;76.10;102348.41;4919258;29;20127;-78
2023/05/02 06:39:33;;;;;;;12.30;3.40;;;;;;;10.06;75.82;102351.06;4905471;29;20063;-78
2023/05/02 06:41:59;;;;;;;11.00;3.17;;;;;;;10.10;75.45;102362.53;4916528;29;20091;-78
2023/05/02 06:44:26;;;;;;;10.95;2.85;;;;;;;10.09;75.36;102360.78;4917704;29;20588;-81
2023/05/02 06:46:51;;;;;;;12.55;2.90;;;;;;;10.15;76.11;102367.88;4919157;29;20040;-81
2023/05/02 06:49:17;;;;;;;15.27;3.83;;;;;;;10.27;75.72;102371.44;4917842;29;20062;-81
2023/05/02 06:51:42;;;;;;;13.77;3.33;;;;;;;10.37;75.30;102371.53;4914593;29;20141;-82
2023/05/02 06:54:08;;;;;;;11.63;3.30;;;;;;;10.37;74.04;102372.41;4888952;29;20040;-81
2023/05/02 06:56:34;;;;;;;17.50;3.05;;;;;;;10.41;74.52;102382.13;4901973;29;20469;-81
2023/05/02 06:59:00;;;;;;;13.18;2.88;;;;;;;10.43;74.78;102371.53;4919026;29;20463;-81
2023/05/02 07:01:25;;;;;;;8.75;2.60;;;;;;;10.57;75.00;102382.19;4901904;29;20064;-81
2023/05/02 07:03:51;;;;;;;12.40;3.78;;;;;;;10.64;74.76;102376.88;4901982;29;20063;-81
2023/05/02 07:06:17;;;;;;;14.65;3.22;;;;;;;10.70;73.28;102387.50;4918651;29;20119;-79
2023/05/02 07:08:42;;;;;;;9.10;2.67;;;;;;;10.69;72.27;102390.16;4918696;29;20039;-78
2023/05/02 07:11:08;;;;;;;14.75;2.83;;;;;;;10.62;71.90;102386.59;4901679;29;20048;-79
2023/05/02 07:13:33;;;;;;;13.98;2.65;;;;;;;10.60;71.02;102392.78;4901885;29;20030;-78
2023/05/02 07:15:59;;;;;;;11.68;2.83;;;;;;;10.62;71.81;102399.84;4885661;29;20044;-79
2023/05/02 07:18:25;;;;;;;16.42;3.20;;;;;;;10.65;71.17;102398.97;4891942;29;20028;-79
2023/05/02 07:20:50;;;;;;;20.02;3.30;;;;;;;10.79;70.54;102404.31;4902876;29;20421;-78
2023/05/02 07:23:16;;;;;;;15.57;3.60;;;;;;;11.02;70.78;102402.56;4890295;29;20032;-78
2023/05/02 07:25:42;;;;;;;8.18;2.78;;;;;;;11.07;67.84;102403.47;4912420;29;20040;-78
2023/05/02 07:28:07;;;;;;;11.35;2.90;;;;;;;11.10;67.57;102410.53;4908540;29;20035;-79
2023/05/02 07:30:33;;;;;;;10.98;3.40;;;;;;;11.01;67.58;102410.53;4917371;29;20099;-78
2023/05/02 07:32:58;;;;;;;15.50;3.50;;;;;;;10.92;68.51;102414.03;4908202;29;20036;-78
2023/05/02 07:35:24;;;;;;;13.13;3.38;;;;;;;10.80;68.98;102430.78;4911614;29;20066;-78
2023/05/02 07:37:50;;;;;;;11.88;3.10;;;;;;;10.71;69.24;102429.03;4917322;29;20028;-78
2023/05/02 07:40:15;;;;;;;10.50;2.67;;;;;;;10.57;66.43;102425.44;4909526;29;20075;-78
2023/05/02 07:42:41;;;;;;;16.17;3.10;;;;;;;10.50;66.80;102434.22;4900673;29;20505;-79
2023/05/02 07:45:07;;;;;;;12.13;2.83;;;;;;;10.41;66.64;102440.41;4908517;29;20040;-78
2023/05/02 07:47:33;;;;;;;16.52;3.90;;;;;;;10.36;67.66;102443.88;4913398;29;20043;-78
2023/05/02 07:49:58;;;;;;;10.80;3.17;;;;;;;10.40;67.28;102448.31;4910342;29;20116;-79
2023/05/02 07:52:25;;;;;;;13.50;2.92;;;;;;;10.40;67.15;102450.97;4911475;29;20128;-79
2023/05/02 07:54:51;;;;;;;15.05;2.65;;;;;;;10.44;67.92;102450.13;4917069;29;20059;-78
2023/05/02 07:57:17;;;;;;;14.27;3.25;;;;;;;10.48;65.74;102446.59;4906387;29;20444;-78
2023/05/02 07:59:42;;;;;;;11.90;2.50;;;;;;;10.51;64.99;102455.44;4913635;29;20464;-78
2023/05/02 08:02:08;;;;;;;9.25;2.55;;;;;;;10.51;65.05;102455.44;4908440;29;20029;-78
2023/05/02 08:04:33;;;;;;;12.80;2.67;;;;;;;10.59;65.56;102452.81;4913101;29;20481;-78
2023/05/02 08:06:59;;;;;;;8.10;2.28;;;;;;;10.68;65.18;102463.47;4884652;29;20035;-78
2023/05/02 08:09:25;;;;;;;11.15;2.50;;;;;;;10.74;65.75;102452.88;4917544;29;20044;-78
2023/05/02 08:11:51;;;;;;;11.00;2.55;;;;;;;10.84;64.50;102450.25;4917264;29;20100;-78
2023/05/02 08:14:16;;;;;;;11.27;2.85;;;;;;;10.99;63.88;102460.88;4883905;29;20536;-78
2023/05/02 08:16:42;;;;;;;11.63;2.50;;;;;;;11.10;64.64;102464.47;4904855;29;20164;-78
2023/05/02 08:19:08;;;;;;;6.93;1.92;;;;;;;11.26;64.22;102465.34;4901278;29;20037;-78
2023/05/02 08:21:34;;;;;;;10.27;2.10;;;;;;;11.47;63.86;102463.59;4908669;29;20039;-78
2023/05/02 08:24:00;;;;;;;10.93;2.63;;;;;;;11.63;61.46;102468.03;4907933;29;20144;-78
2023/05/02 08:26:26;;;;;;;16.67;2.58;;;;;;;11.67;59.69;102468.91;4897232;29;20032;-78
2023/05/02 08:28:52;;;;;;;10.38;2.53;;;;;;;11.72;59.23;102470.69;4889230;29;20048;-78
2023/05/02 08:31:17;;;;;;;7.90;2.33;;;;;;;11.86;59.97;102475.97;4899467;29;20127;-78
2023/05/02 08:33:43;;;;;;;9.38;2.55;;;;;;;11.97;60.27;102462.75;4905515;29;20108;-78
2023/05/02 08:36:14;;;;;;;10.20;2.72;;;;;;;12.09;59.54;102475.09;4892600;29;20043;-78
2023/05/02 08:38:40;;;;;;;12.63;3.35;;;;;;;12.15;58.62;102483.06;4897631;29;20472;-78
2023/05/02 08:41:10;;;;;;;11.50;2.50;;;;;;;12.31;58.65;102490.06;4899472;29;20340;-78
2023/05/02 08:43:38;;;;;;;7.53;2.45;;;;;;;12.55;57.28;102480.28;4912587;29;20033;-79
2023/05/02 08:46:06;;;;;;;10.88;2.78;;;;;;;12.67;56.21;102489.06;4905861;29;20083;-79
2023/05/02 08:48:35;;;;;;;5.40;1.92;;;;;;;12.60;55.52;102476.69;4899489;29;20036;-78
2023/05/02 08:51:02;;;;;;;6.90;2.50;;;;;;;12.56;55.80;102490.00;4916240;29;20440;-79
2023/05/02 08:53:31;;;;;;;6.07;2.13;;;;;;;12.71;57.22;102489.97;4899332;29;20036;-79
2023/05/02 08:55:57;;;;;;;9.40;2.13;;;;;;;12.99;55.48;102489.81;4916479;29;20443;-79
2023/05/02 08:58:23;;;;;;;6.65;2.50;;;;;;;13.03;54.44;102487.13;4916366;29;20096;-79
2023/05/02 09:00:50;;;;;;;7.60;2.40;;;;;;;13.00;55.18;102497.78;4899362;29;20460;-79
2023/05/02 09:03:28;;;;;;;5.25;1.90;;;;;;;12.80;53.67;102503.19;4888310;29;20083;-79
2023/05/02 09:06:05;;;;;;;7.93;2.25;;;;;;;12.68;54.21;102504.16;4885473;29;20080;-79
2023/05/02 09:08:32;;;;;;;8.07;2.25;;;;;;;12.74;54.27;102519.19;4904117;29;20048;-78
2023/05/02 09:10:58;;;;;;;12.00;2.70;;;;;;;12.74;54.65;102518.31;4915007;29;20436;-79
2023/05/02 09:13:29;;;;;;;8.18;2.45;;;;;;;12.69;54.58;102527.16;4899534;29;20039;-79
2023/05/02 09:16:06;;;;;;;6.03;2.20;;;;;;;12.72;54.33;102531.59;4900302;29;20036;-79
2023/05/02 09:18:40;;;;;;;7.80;2.10;;;;;;;12.85;53.82;102527.97;4901372;29;20082;-79
2023/05/02 09:21:08;;;;;;;7.75;2.47;;;;;;;12.90;52.88;102520.84;4909291;29;20457;-79
2023/05/02 09:23:39;;;;;;;11.07;2.90;;;;;;;13.10;53.87;102523.44;4915933;29;20031;-79
2023/05/02 09:26:31;;;;;;;12.85;3.13;;;;;;;13.27;52.35;102538.44;4902830;29;20103;-78
2023/05/02 09:28:58;;;;;;;11.10;2.47;;;;;;;13.30;52.50;102539.31;4896822;29;20131;-79
2023/05/02 09:31:26;;;;;;;8.02;2.90;;;;;;;13.30;52.40;102546.41;4893102;29;20144;-79
2023/05/02 09:33:52;;;;;;;8.23;2.75;;;;;;;13.29;53.02;102536.66;4884867;29;20044;-79
2023/05/02 09:36:19;;;;;;;10.88;3.08;;;;;;;13.45;54.63;102537.44;4901778;29;20033;-81
2023/05/02 09:38:48;;;;;;;16.00;3.10;;;;;;;13.64;53.82;102543.53;4887988;29;20192;-82
2023/05/02 09:41:14;;;;;;;12.13;3.13;;;;;;;13.60;52.51;102544.44;4912396;29;20040;-82
2023/05/02 09:43:40;;;;;;;9.98;3.20;;;;;;;13.53;52.35;102552.47;4915673;29;20044;-82
2023/05/02 09:46:10;;;;;;;9.30;2.47;;;;;;;13.82;53.70;102547.81;4915528;29;20545;-81
2023/05/02 09:48:53;;;;;;;10.02;2.78;;;;;;;14.14;53.61;102552.84;4915676;29;20099;-82
2023/05/02 09:51:20;;;;;;;9.85;2.63;;;;;;;14.18;50.85;102555.47;4905527;29;20052;-81
2023/05/02 09:53:46;;;;;;;7.22;2.05;;;;;;;14.34;50.47;102552.66;4913962;29;20040;-81
2023/05/02 09:56:12;;;;;;;9.75;2.85;;;;;;;14.28;49.51;102563.41;4898070;29;20043;-81
2023/05/02 09:58:38;;;;;;;7.07;2.40;;;;;;;14.05;49.18;102566.28;4902439;29;20396;-82
2023/05/02 10:01:04;;;;;;;8.93;2.28;;;;;;;13.87;50.03;102561.97;4915453;29;20044;-80
2023/05/02 10:03:31;;;;;;;12.52;2.15;;;;;;;13.84;51.12;102573.53;4887018;29;20482;-80
2023/05/02 10:05:57;;;;;;;10.35;3.05;;;;;;;13.80;49.72;102570.91;4898313;29;20480;-79
2023/05/02 10:08:28;;;;;;;9.45;2.72;;;;;;;13.79;50.06;102567.34;4886586;29;20044;-79
2023/05/02 10:10:56;;;;;;;10.63;2.35;;;;;;;13.81;50.66;102570.91;4914053;29;20043;-79
2023/05/02 10:13:25;;;;;;;10.50;2.13;;;;;;;14.15;50.18;102571.50;4915250;29;20052;-80
2023/05/02 10:16:00;;;;;;;11.30;2.47;;;;;;;14.31;47.28;102574.03;4898510;29;20069;-79
2023/05/02 10:18:28;;;;;;;7.70;2.10;;;;;;;14.46;47.25;102575.66;4902764;29;20118;-79
2023/05/02 10:21:26;;;;;;;7.25;2.40;;;;;;;14.95;49.25;102573.34;4892964;29;20024;-79
2023/05/02 10:23:52;;;;;;;8.27;2.65;;;;;;;15.15;46.32;102572.19;4865680;29;20049;-78
2023/05/02 10:26:20;;;;;;;4.95;2.33;;;;;;;14.97;46.19;102563.53;4891972;29;20025;-79
2023/05/02 10:28:46;;;;;;;11.40;2.97;;;;;;;14.71;45.60;102568.28;4903764;29;20439;-79
2023/05/02 10:31:13;;;;;;;5.13;1.88;;;;;;;14.47;45.16;102575.63;4914843;29;20460;-79
2023/05/02 10:33:39;;;;;;;7.22;2.38;;;;;;;14.28;45.94;102584.72;4902642;29;20036;-79
2023/05/02 10:36:08;;;;;;;13.15;2.30;;;;;;;14.37;47.06;102584.63;4907667;29;20425;-79
2023/05/02 10:38:35;;;;;;;7.07;2.60;;;;;;;14.68;45.43;102579.00;4891323;29;20480;-79
2023/05/02 10:41:08;;;;;;;11.18;2.35;;;;;;;14.86;45.59;102572.56;4889074;29;20347;-79
2023/05/02 10:43:36;;;;;;;8.82;2.55;;;;;;;14.74;44.26;102578.94;4915040;29;20036;-79
2023/05/02 10:46:02;;;;;;;10.15;2.47;;;;;;;14.66;45.45;102580.78;4914992;29;20067;-79
2023/05/02 10:48:29;;;;;;;11.07;2.47;;;;;;;14.62;44.83;102582.63;4898059;29;20050;-79
2023/05/02 10:51:00;;;;;;;7.70;2.42;;;;;;;14.55;44.44;102570.25;4914135;29;20111;-79
2023/05/02 10:53:33;;;;;;;8.23;2.28;;;;;;;14.53;45.86;102566.69;4914808;29;20051;-80
2023/05/02 10:56:25;;;;;;;6.20;1.95;;;;;;;14.66;47.26;102575.47;4897921;29;20036;-79
2023/05/02 10:58:52;;;;;;;7.75;2.60;;;;;;;14.62;45.99;102575.50;4909637;29;20063;-79
2023/05/02 11:01:23;;;;;;;5.88;2.13;;;;;;;14.71;46.75;102578.97;4903513;29;20349;-79
2023/05/02 11:04:15;;;;;;;13.00;2.47;;;;;;;14.74;46.87;102595.81;4898017;29;20041;-79
2023/05/02 11:07:13;;;;;;;7.18;2.28;;;;;;;14.94;47.04;102587.59;4891699;29;20060;-79
2023/05/02 11:09:39;;;;;;;12.48;2.40;;;;;;;15.45;44.78;102585.13;4874868;29;20071;-79
2023/05/02 11:12:04;;;;;;;7.07;2.20;;;;;;;15.65;43.33;102592.84;4918443;29;20099;-79
2023/05/02 11:14:33;;;;;;;5.80;2.70;;;;;;;15.56;41.71;102597.44;4918401;29;20500;-79
2023/05/02 11:16:58;;;;;;;9.80;2.40;;;;;;;15.29;43.32;102599.59;4918868;29;20032;-79
2023/05/02 11:19:28;;;;;;;14.57;2.42;;;;;;;15.19;43.29;102601.50;4896541;29;20044;-79
2023/05/02 11:22:22;;;;;;;10.88;2.60;;;;;;;15.14;44.13;102595.34;4894896;29;20104;-79
2023/05/02 11:24:49;;;;;;;5.53;2.25;;;;;;;15.22;44.04;102604.13;4910635;29;20064;-79
2023/05/02 11:27:32;;;;;;;9.07;2.50;;;;;;;15.13;43.85;102596.22;4901829;29;20468;-79